Briefing drone pour Perigueux (LFBX)

Rechercher une autre localisation

Conditions de vol :


Nous sommes le : Lundi 02 août 2021
Il est 23:43 UTC (01:43 LT)

Lever de soleil : 04:17 UTC (06:17 LT)
Coucher de soleil : 19:49 UTC (21:49 LT)

Météo

L'essentiel des conditions de vol

VIGILANCE MÉTÉO FRANCE - Dordogne (24)
Pas de vigilances particulieres
CARTE TEMSI
CARTES DES FRONTS
METAR de LFBX
LFBX 012330Z AUTO 00000KT 9999 FEW002 11/11 Q1017

Date d'émission: 01/08/2021
Heure d'émission: 23:30 UTC
Vent: Calme
Visibilité horizontale: > 10 km
Plafond :
- Peu de nuages à 200ft (61m)
Température: 11 °C
Point de rosée: 11 °C
Humidité: 100%
Pression (QNH): 1017 hPa
Prévision 24h pour Perigueux
Vent : 322° pour 2 KT (8 km/h)
Temperature Maxi: 22 °C
Temperature Min: 22 °C
Humidité : 54%
Condition : Nuageux



Warning: count(): Parameter must be an array or an object that implements Countable in /homepages/6/d509196549/htdocs/droneoxygene/briefing.php on line 743
WEBCAM POUR PERIGUEUX

Réglementation

Voler en sécurité

CARTES AERONAUTIQUE 1/500.000
CARTES VAC (LFBX)
SUP AIP




Chargement des AIP...
NOTAM (PERIGUEUX + Terrain à proximité / FIR )




Chargement des NOTAMS...
CONTACT PREFECTURE 24


Avertissement : Les données mises à disposition sont indicatives. Oxygène Drone ne pourra être tenu responsable de dégâts causés aux biens et aux personnes.